sensor_id;sensor_type;location;lat;lon;timestamp;temperature;humidity
32348;DHT22;18821;44.800;10.326;2023-07-16T00:04:44;25.60;99.90
32348;DHT22;18821;44.800;10.326;2023-07-16T00:07:10;26.50;99.90
32348;DHT22;18821;44.800;10.326;2023-07-16T00:09:36;25.60;99.90
32348;DHT22;18821;44.800;10.326;2023-07-16T00:12:03;26.00;99.90
32348;DHT22;18821;44.800;10.326;2023-07-16T00:14:29;26.40;99.90
32348;DHT22;18821;44.800;10.326;2023-07-16T00:24:14;26.40;99.90
32348;DHT22;18821;44.800;10.326;2023-07-16T00:26:40;26.30;99.90
32348;DHT22;18821;44.800;10.326;2023-07-16T00:29:05;26.50;99.90
32348;DHT22;18821;44.800;10.326;2023-07-16T00:31:31;26.10;99.90
32348;DHT22;18821;44.800;10.326;2023-07-16T00:33:57;26.50;99.90
32348;DHT22;18821;44.800;10.326;2023-07-16T00:36:24;26.10;99.90
32348;DHT22;18821;44.800;10.326;2023-07-16T00:41:16;26.60;99.90
32348;DHT22;18821;44.800;10.326;2023-07-16T00:46:08;26.70;99.90
32348;DHT22;18821;44.800;10.326;2023-07-16T00:48:35;25.80;99.90
32348;DHT22;18821;44.800;10.326;2023-07-16T00:51:02;26.20;99.90
32348;DHT22;18821;44.800;10.326;2023-07-16T00:53:28;26.30;99.90
32348;DHT22;18821;44.800;10.326;2023-07-16T00:55:54;26.60;99.90
32348;DHT22;18821;44.800;10.326;2023-07-16T01:00:47;25.80;99.90
32348;DHT22;18821;44.800;10.326;2023-07-16T01:03:14;26.10;99.90
32348;DHT22;18821;44.800;10.326;2023-07-16T01:06:00;25.90;99.90
32348;DHT22;18821;44.800;10.326;2023-07-16T01:08:42;25.30;99.90
32348;DHT22;18821;44.800;10.326;2023-07-16T01:11:10;25.70;99.90
32348;DHT22;18821;44.800;10.326;2023-07-16T01:13:37;25.30;99.90
32348;DHT22;18821;44.800;10.326;2023-07-16T01:16:04;25.90;99.90
32348;DHT22;18821;44.800;10.326;2023-07-16T01:18:30;25.70;99.90
32348;DHT22;18821;44.800;10.326;2023-07-16T01:32:00;25.60;99.90
32348;DHT22;18821;44.800;10.326;2023-07-16T01:34:31;25.40;99.90
32348;DHT22;18821;44.800;10.326;2023-07-16T01:37:02;25.30;99.90
32348;DHT22;18821;44.800;10.326;2023-07-16T01:39:28;25.00;99.90
32348;DHT22;18821;44.800;10.326;2023-07-16T01:41:55;25.30;99.90
32348;DHT22;18821;44.800;10.326;2023-07-16T01:44:21;25.60;99.90
32348;DHT22;18821;44.800;10.326;2023-07-16T01:47:13;24.90;99.90
32348;DHT22;18821;44.800;10.326;2023-07-16T01:49:41;25.00;99.90
32348;DHT22;18821;44.800;10.326;2023-07-16T01:52:08;24.60;99.90
32348;DHT22;18821;44.800;10.326;2023-07-16T01:54:35;25.00;99.90
32348;DHT22;18821;44.800;10.326;2023-07-16T01:57:01;25.40;99.90
32348;DHT22;18821;44.800;10.326;2023-07-16T01:59:28;25.00;99.90
32348;DHT22;18821;44.800;10.326;2023-07-16T02:01:55;25.00;99.90
32348;DHT22;18821;44.800;10.326;2023-07-16T02:04:22;25.30;99.90
32348;DHT22;18821;44.800;10.326;2023-07-16T02:09:20;24.70;99.90
32348;DHT22;18821;44.800;10.326;2023-07-16T02:11:46;25.30;99.90
32348;DHT22;18821;44.800;10.326;2023-07-16T02:14:12;25.40;99.90
32348;DHT22;18821;44.800;10.326;2023-07-16T02:16:39;24.20;99.90
32348;DHT22;18821;44.800;10.326;2023-07-16T02:19:05;24.70;99.90
32348;DHT22;18821;44.800;10.326;2023-07-16T02:21:33;24.90;99.90
32348;DHT22;18821;44.800;10.326;2023-07-16T02:26:25;24.10;99.90
32348;DHT22;18821;44.800;10.326;2023-07-16T02:28:51;25.40;99.90
32348;DHT22;18821;44.800;10.326;2023-07-16T02:31:17;24.90;99.90
32348;DHT22;18821;44.800;10.326;2023-07-16T02:33:43;25.00;99.90
32348;DHT22;18821;44.800;10.326;2023-07-16T02:36:09;25.20;99.90
32348;DHT22;18821;44.800;10.326;2023-07-16T02:38:35;24.30;99.90
32348;DHT22;18821;44.800;10.326;2023-07-16T02:41:01;25.70;99.90
32348;DHT22;18821;44.800;10.326;2023-07-16T02:43:27;24.50;99.90
32348;DHT22;18821;44.800;10.326;2023-07-16T02:48:21;25.10;99.90
32348;DHT22;18821;44.800;10.326;2023-07-16T02:50:47;24.90;99.90
32348;DHT22;18821;44.800;10.326;2023-07-16T02:53:13;25.00;99.90
32348;DHT22;18821;44.800;10.326;2023-07-16T02:58:05;25.20;99.90
32348;DHT22;18821;44.800;10.326;2023-07-16T03:00:33;24.90;99.90
32348;DHT22;18821;44.800;10.326;2023-07-16T03:05:27;25.30;99.90
32348;DHT22;18821;44.800;10.326;2023-07-16T03:07:53;25.00;99.90
32348;DHT22;18821;44.800;10.326;2023-07-16T03:10:21;24.40;99.90
32348;DHT22;18821;44.800;10.326;2023-07-16T03:12:47;24.80;99.90
32348;DHT22;18821;44.800;10.326;2023-07-16T03:20:07;24.50;99.90
32348;DHT22;18821;44.800;10.326;2023-07-16T03:22:33;24.60;99.90
32348;DHT22;18821;44.800;10.326;2023-07-16T03:25:00;24.30;99.90
32348;DHT22;18821;44.800;10.326;2023-07-16T03:27:29;24.80;99.90
32348;DHT22;18821;44.800;10.326;2023-07-16T03:32:24;24.80;99.90
32348;DHT22;18821;44.800;10.326;2023-07-16T03:34:50;24.80;99.90
32348;DHT22;18821;44.800;10.326;2023-07-16T03:39:43;23.70;99.90
32348;DHT22;18821;44.800;10.326;2023-07-16T03:42:09;24.80;99.90
32348;DHT22;18821;44.800;10.326;2023-07-16T03:44:35;23.80;99.90
32348;DHT22;18821;44.800;10.326;2023-07-16T03:51:55;24.20;99.90
32348;DHT22;18821;44.800;10.326;2023-07-16T03:56:47;24.60;99.90
32348;DHT22;18821;44.800;10.326;2023-07-16T03:59:13;24.80;99.90
32348;DHT22;18821;44.800;10.326;2023-07-16T04:01:39;23.50;99.90
32348;DHT22;18821;44.800;10.326;2023-07-16T04:04:05;24.80;99.90
32348;DHT22;18821;44.800;10.326;2023-07-16T04:06:31;24.40;99.90
32348;DHT22;18821;44.800;10.326;2023-07-16T04:08:57;24.80;99.90
32348;DHT22;18821;44.800;10.326;2023-07-16T04:11:23;24.20;99.90
32348;DHT22;18821;44.800;10.326;2023-07-16T04:13:49;24.20;99.90
32348;DHT22;18821;44.800;10.326;2023-07-16T04:16:15;24.00;99.90
32348;DHT22;18821;44.800;10.326;2023-07-16T04:18:41;24.10;99.90
32348;DHT22;18821;44.800;10.326;2023-07-16T04:21:06;24.00;99.90
32348;DHT22;18821;44.800;10.326;2023-07-16T04:33:17;24.70;99.90
32348;DHT22;18821;44.800;10.326;2023-07-16T04:38:11;23.80;99.90
32348;DHT22;18821;44.800;10.326;2023-07-16T04:40:37;24.90;99.90
32348;DHT22;18821;44.800;10.326;2023-07-16T04:43:02;24.70;99.90
32348;DHT22;18821;44.800;10.326;2023-07-16T04:47:55;25.00;99.90
32348;DHT22;18821;44.800;10.326;2023-07-16T04:50:21;24.70;99.90
32348;DHT22;18821;44.800;10.326;2023-07-16T04:52:47;25.20;99.90
32348;DHT22;18821;44.800;10.326;2023-07-16T04:57:39;24.90;99.90
32348;DHT22;18821;44.800;10.326;2023-07-16T05:00:05;24.20;99.90
32348;DHT22;18821;44.800;10.326;2023-07-16T05:02:32;24.50;99.90
32348;DHT22;18821;44.800;10.326;2023-07-16T05:07:25;25.30;99.90
32348;DHT22;18821;44.800;10.326;2023-07-16T05:09:50;24.50;99.90
32348;DHT22;18821;44.800;10.326;2023-07-16T05:14:44;25.60;99.90
32348;DHT22;18821;44.800;10.326;2023-07-16T05:17:12;24.70;99.90
32348;DHT22;18821;44.800;10.326;2023-07-16T05:19:38;24.60;99.90
32348;DHT22;18821;44.800;10.326;2023-07-16T05:22:04;24.70;99.90
32348;DHT22;18821;44.800;10.326;2023-07-16T05:24:31;25.50;99.90
32348;DHT22;18821;44.800;10.326;2023-07-16T05:29:23;26.00;99.90
32348;DHT22;18821;44.800;10.326;2023-07-16T05:31:49;25.20;99.90
32348;DHT22;18821;44.800;10.326;2023-07-16T05:34:15;25.50;99.90
32348;DHT22;18821;44.800;10.326;2023-07-16T05:36:42;25.60;99.90
32348;DHT22;18821;44.800;10.326;2023-07-16T05:39:10;25.30;99.90
32348;DHT22;18821;44.800;10.326;2023-07-16T05:41:39;25.40;99.90
32348;DHT22;18821;44.800;10.326;2023-07-16T05:44:05;25.60;99.90
32348;DHT22;18821;44.800;10.326;2023-07-16T05:46:32;26.80;99.90
32348;DHT22;18821;44.800;10.326;2023-07-16T05:48:58;26.20;99.90
32348;DHT22;18821;44.800;10.326;2023-07-16T05:53:50;26.90;99.90
32348;DHT22;18821;44.800;10.326;2023-07-16T05:56:16;27.00;99.90
32348;DHT22;18821;44.800;10.326;2023-07-16T05:58:42;27.90;99.90
32348;DHT22;18821;44.800;10.326;2023-07-16T06:01:08;28.00;99.90
32348;DHT22;18821;44.800;10.326;2023-07-16T06:03:34;28.20;99.90
32348;DHT22;18821;44.800;10.326;2023-07-16T06:08:27;30.10;99.90
32348;DHT22;18821;44.800;10.326;2023-07-16T06:13:19;30.90;99.90
32348;DHT22;18821;44.800;10.326;2023-07-16T06:15:47;29.70;99.90
32348;DHT22;18821;44.800;10.326;2023-07-16T06:20:43;30.20;99.90
32348;DHT22;18821;44.800;10.326;2023-07-16T06:25:37;31.20;99.90
32348;DHT22;18821;44.800;10.326;2023-07-16T06:28:04;30.90;99.90
32348;DHT22;18821;44.800;10.326;2023-07-16T06:30:29;31.20;99.90
32348;DHT22;18821;44.800;10.326;2023-07-16T06:35:24;30.30;99.90
32348;DHT22;18821;44.800;10.326;2023-07-16T06:37:50;30.50;99.90
32348;DHT22;18821;44.800;10.326;2023-07-16T06:40:16;31.20;99.90
32348;DHT22;18821;44.800;10.326;2023-07-16T06:42:42;30.20;99.90
32348;DHT22;18821;44.800;10.326;2023-07-16T06:45:08;30.40;99.90
32348;DHT22;18821;44.800;10.326;2023-07-16T06:47:34;31.10;99.90
32348;DHT22;18821;44.800;10.326;2023-07-16T06:54:56;32.10;99.90
32348;DHT22;18821;44.800;10.326;2023-07-16T06:57:23;31.70;99.90
32348;DHT22;18821;44.800;10.326;2023-07-16T06:59:49;31.60;99.90
32348;DHT22;18821;44.800;10.326;2023-07-16T07:02:16;31.10;99.90
32348;DHT22;18821;44.800;10.326;2023-07-16T07:04:43;31.40;99.90
32348;DHT22;18821;44.800;10.326;2023-07-16T07:16:54;29.60;99.90
32348;DHT22;18821;44.800;10.326;2023-07-16T07:21:47;30.10;99.90
32348;DHT22;18821;44.800;10.326;2023-07-16T07:24:13;29.40;99.90
32348;DHT22;18821;44.800;10.326;2023-07-16T07:29:05;29.70;99.90
32348;DHT22;18821;44.800;10.326;2023-07-16T07:31:31;29.20;99.90
32348;DHT22;18821;44.800;10.326;2023-07-16T07:33:57;29.60;99.90
32348;DHT22;18821;44.800;10.326;2023-07-16T07:36:25;30.00;99.90
32348;DHT22;18821;44.800;10.326;2023-07-16T07:41:17;29.40;99.90
32348;DHT22;18821;44.800;10.326;2023-07-16T07:43:43;29.70;99.90
32348;DHT22;18821;44.800;10.326;2023-07-16T07:46:09;29.60;99.90
32348;DHT22;18821;44.800;10.326;2023-07-16T07:48:36;30.10;99.90
32348;DHT22;18821;44.800;10.326;2023-07-16T07:51:01;30.50;99.90
32348;DHT22;18821;44.800;10.326;2023-07-16T07:53:27;30.70;99.90
32348;DHT22;18821;44.800;10.326;2023-07-16T07:55:54;30.40;99.90
32348;DHT22;18821;44.800;10.326;2023-07-16T07:58:20;30.60;99.90
32348;DHT22;18821;44.800;10.326;2023-07-16T08:00:46;30.70;99.90
32348;DHT22;18821;44.800;10.326;2023-07-16T08:03:12;31.00;99.90
32348;DHT22;18821;44.800;10.326;2023-07-16T08:05:37;30.90;99.90
32348;DHT22;18821;44.800;10.326;2023-07-16T08:08:04;31.10;99.90
32348;DHT22;18821;44.800;10.326;2023-07-16T08:10:30;30.00;99.90
32348;DHT22;18821;44.800;10.326;2023-07-16T08:12:56;30.70;99.90
32348;DHT22;18821;44.800;10.326;2023-07-16T08:15:22;30.50;99.90
32348;DHT22;18821;44.800;10.326;2023-07-16T08:20:14;30.90;99.90
32348;DHT22;18821;44.800;10.326;2023-07-16T08:25:07;30.90;99.90
32348;DHT22;18821;44.800;10.326;2023-07-16T08:27:34;31.40;99.90
32348;DHT22;18821;44.800;10.326;2023-07-16T08:34:53;31.20;99.90
32348;DHT22;18821;44.800;10.326;2023-07-16T08:39:45;31.10;99.90
32348;DHT22;18821;44.800;10.326;2023-07-16T08:42:11;30.50;99.90
32348;DHT22;18821;44.800;10.326;2023-07-16T08:44:37;31.10;99.90
32348;DHT22;18821;44.800;10.326;2023-07-16T08:47:05;31.30;99.90
32348;DHT22;18821;44.800;10.326;2023-07-16T08:49:33;30.70;99.90
32348;DHT22;18821;44.800;10.326;2023-07-16T08:52:01;31.80;99.90
32348;DHT22;18821;44.800;10.326;2023-07-16T08:59:21;31.30;99.90
32348;DHT22;18821;44.800;10.326;2023-07-16T09:01:47;31.40;99.90
32348;DHT22;18821;44.800;10.326;2023-07-16T09:04:15;32.00;99.90
32348;DHT22;18821;44.800;10.326;2023-07-16T09:06:42;31.20;99.90
32348;DHT22;18821;44.800;10.326;2023-07-16T09:09:10;31.20;99.90
32348;DHT22;18821;44.800;10.326;2023-07-16T09:11:46;31.70;99.90
32348;DHT22;18821;44.800;10.326;2023-07-16T09:14:18;32.10;99.90
32348;DHT22;18821;44.800;10.326;2023-07-16T09:16:48;32.30;99.90
32348;DHT22;18821;44.800;10.326;2023-07-16T09:21:45;32.60;99.90
32348;DHT22;18821;44.800;10.326;2023-07-16T09:24:11;32.50;99.90
32348;DHT22;18821;44.800;10.326;2023-07-16T09:26:38;32.50;99.90
32348;DHT22;18821;44.800;10.326;2023-07-16T09:29:07;32.60;99.90
32348;DHT22;18821;44.800;10.326;2023-07-16T09:31:33;32.70;99.90
32348;DHT22;18821;44.800;10.326;2023-07-16T09:33:59;32.90;99.90
32348;DHT22;18821;44.800;10.326;2023-07-16T09:38:56;32.90;99.90
32348;DHT22;18821;44.800;10.326;2023-07-16T09:41:23;33.00;99.90
32348;DHT22;18821;44.800;10.326;2023-07-16T09:43:50;33.10;99.90
32348;DHT22;18821;44.800;10.326;2023-07-16T09:48:42;33.60;99.90
32348;DHT22;18821;44.800;10.326;2023-07-16T09:51:11;33.40;99.90
32348;DHT22;18821;44.800;10.326;2023-07-16T09:53:40;33.10;99.90
32348;DHT22;18821;44.800;10.326;2023-07-16T09:56:11;33.30;99.90
32348;DHT22;18821;44.800;10.326;2023-07-16T09:58:38;32.80;99.90
32348;DHT22;18821;44.800;10.326;2023-07-16T10:01:05;33.60;99.90
32348;DHT22;18821;44.800;10.326;2023-07-16T10:03:31;33.10;99.90
32348;DHT22;18821;44.800;10.326;2023-07-16T10:06:07;33.10;99.90
32348;DHT22;18821;44.800;10.326;2023-07-16T10:08:34;33.20;99.90
32348;DHT22;18821;44.800;10.326;2023-07-16T10:13:27;33.60;99.90
32348;DHT22;18821;44.800;10.326;2023-07-16T10:15:57;33.80;99.90
32348;DHT22;18821;44.800;10.326;2023-07-16T10:18:27;33.70;99.90
32348;DHT22;18821;44.800;10.326;2023-07-16T10:21:05;33.90;99.90
32348;DHT22;18821;44.800;10.326;2023-07-16T10:23:42;34.00;99.90
32348;DHT22;18821;44.800;10.326;2023-07-16T10:26:11;34.00;99.90
32348;DHT22;18821;44.800;10.326;2023-07-16T10:28:38;34.10;99.90
32348;DHT22;18821;44.800;10.326;2023-07-16T10:35:58;34.40;99.90
32348;DHT22;18821;44.800;10.326;2023-07-16T10:38:27;34.40;99.90
32348;DHT22;18821;44.800;10.326;2023-07-16T10:40:53;34.20;99.90
32348;DHT22;18821;44.800;10.326;2023-07-16T10:45:45;34.20;99.90
32348;DHT22;18821;44.800;10.326;2023-07-16T10:48:12;34.40;99.90
32348;DHT22;18821;44.800;10.326;2023-07-16T10:50:38;33.80;99.90
32348;DHT22;18821;44.800;10.326;2023-07-16T10:53:04;34.00;99.90
32348;DHT22;18821;44.800;10.326;2023-07-16T10:58:04;34.00;99.90
32348;DHT22;18821;44.800;10.326;2023-07-16T11:00:38;33.70;99.90
32348;DHT22;18821;44.800;10.326;2023-07-16T11:05:31;34.20;99.90
32348;DHT22;18821;44.800;10.326;2023-07-16T11:07:57;34.30;99.90
32348;DHT22;18821;44.800;10.326;2023-07-16T11:10:24;34.10;99.90
32348;DHT22;18821;44.800;10.326;2023-07-16T11:12:51;33.50;99.90
32348;DHT22;18821;44.800;10.326;2023-07-16T11:15:18;34.20;99.90
32348;DHT22;18821;44.800;10.326;2023-07-16T11:20:22;34.30;99.90
32348;DHT22;18821;44.800;10.326;2023-07-16T11:27:41;35.60;99.90
32348;DHT22;18821;44.800;10.326;2023-07-16T11:30:08;34.40;99.90
32348;DHT22;18821;44.800;10.326;2023-07-16T11:32:42;34.00;99.90
32348;DHT22;18821;44.800;10.326;2023-07-16T11:35:15;33.90;99.90
32348;DHT22;18821;44.800;10.326;2023-07-16T11:37:41;34.10;99.90
32348;DHT22;18821;44.800;10.326;2023-07-16T11:40:10;34.40;99.90
32348;DHT22;18821;44.800;10.326;2023-07-16T11:42:37;34.20;99.90
32348;DHT22;18821;44.800;10.326;2023-07-16T11:45:05;34.50;99.90
32348;DHT22;18821;44.800;10.326;2023-07-16T11:49:59;34.40;99.90
32348;DHT22;18821;44.800;10.326;2023-07-16T11:52:29;34.60;99.90
32348;DHT22;18821;44.800;10.326;2023-07-16T11:54:58;34.80;99.90
32348;DHT22;18821;44.800;10.326;2023-07-16T11:57:28;34.90;99.90
32348;DHT22;18821;44.800;10.326;2023-07-16T12:02:20;35.00;99.90
32348;DHT22;18821;44.800;10.326;2023-07-16T12:04:47;35.00;99.90
32348;DHT22;18821;44.800;10.326;2023-07-16T12:07:13;35.00;99.90
32348;DHT22;18821;44.800;10.326;2023-07-16T12:09:39;35.20;99.90
32348;DHT22;18821;44.800;10.326;2023-07-16T12:12:06;35.20;99.90
32348;DHT22;18821;44.800;10.326;2023-07-16T12:16:58;34.90;99.90
32348;DHT22;18821;44.800;10.326;2023-07-16T12:19:25;35.10;99.90
32348;DHT22;18821;44.800;10.326;2023-07-16T12:24:17;34.90;99.90
32348;DHT22;18821;44.800;10.326;2023-07-16T12:29:09;35.50;99.90
32348;DHT22;18821;44.800;10.326;2023-07-16T12:34:02;35.30;99.90
32348;DHT22;18821;44.800;10.326;2023-07-16T12:38:55;35.20;99.90
32348;DHT22;18821;44.800;10.326;2023-07-16T12:41:21;35.60;99.90
32348;DHT22;18821;44.800;10.326;2023-07-16T12:43:47;36.00;99.90
32348;DHT22;18821;44.800;10.326;2023-07-16T12:46:13;35.90;99.90
32348;DHT22;18821;44.800;10.326;2023-07-16T12:48:39;35.70;99.90
32348;DHT22;18821;44.800;10.326;2023-07-16T12:51:05;35.70;99.90
32348;DHT22;18821;44.800;10.326;2023-07-16T12:53:31;35.30;99.90
32348;DHT22;18821;44.800;10.326;2023-07-16T12:55:57;35.40;99.90
32348;DHT22;18821;44.800;10.326;2023-07-16T13:03:15;35.50;99.90
32348;DHT22;18821;44.800;10.326;2023-07-16T13:05:43;35.60;99.90
32348;DHT22;18821;44.800;10.326;2023-07-16T13:08:10;35.40;99.90
32348;DHT22;18821;44.800;10.326;2023-07-16T13:13:02;35.00;99.90
32348;DHT22;18821;44.800;10.326;2023-07-16T13:15:29;35.90;99.90
32348;DHT22;18821;44.800;10.326;2023-07-16T13:17:55;36.30;99.90
32348;DHT22;18821;44.800;10.326;2023-07-16T13:20:21;36.10;99.90
32348;DHT22;18821;44.800;10.326;2023-07-16T13:22:48;36.00;99.90
32348;DHT22;18821;44.800;10.326;2023-07-16T13:25:17;36.30;99.90
32348;DHT22;18821;44.800;10.326;2023-07-16T13:30:09;37.10;99.90
32348;DHT22;18821;44.800;10.326;2023-07-16T13:44:47;36.10;99.90
32348;DHT22;18821;44.800;10.326;2023-07-16T13:52:06;36.10;99.90
32348;DHT22;18821;44.800;10.326;2023-07-16T13:54:32;35.30;99.90
32348;DHT22;18821;44.800;10.326;2023-07-16T13:59:24;36.50;99.90
32348;DHT22;18821;44.800;10.326;2023-07-16T14:02:02;37.40;99.90
32348;DHT22;18821;44.800;10.326;2023-07-16T14:04:29;36.90;99.90
32348;DHT22;18821;44.800;10.326;2023-07-16T14:06:55;36.40;99.90
32348;DHT22;18821;44.800;10.326;2023-07-16T14:09:22;37.40;99.90
32348;DHT22;18821;44.800;10.326;2023-07-16T14:11:48;37.30;99.90
32348;DHT22;18821;44.800;10.326;2023-07-16T14:14:15;37.10;99.90
32348;DHT22;18821;44.800;10.326;2023-07-16T14:16:41;36.30;99.90
32348;DHT22;18821;44.800;10.326;2023-07-16T14:19:07;36.60;99.90
32348;DHT22;18821;44.800;10.326;2023-07-16T14:21:33;36.60;99.90
32348;DHT22;18821;44.800;10.326;2023-07-16T14:28:51;37.10;99.90
32348;DHT22;18821;44.800;10.326;2023-07-16T14:31:17;37.10;99.90
32348;DHT22;18821;44.800;10.326;2023-07-16T14:33:43;36.90;99.90
32348;DHT22;18821;44.800;10.326;2023-07-16T14:36:09;36.90;99.90
32348;DHT22;18821;44.800;10.326;2023-07-16T14:43:29;37.10;99.90
32348;DHT22;18821;44.800;10.326;2023-07-16T14:48:21;37.30;99.90
32348;DHT22;18821;44.800;10.326;2023-07-16T14:50:49;37.10;99.90
32348;DHT22;18821;44.800;10.326;2023-07-16T14:55:50;37.30;99.90
32348;DHT22;18821;44.800;10.326;2023-07-16T14:58:20;36.80;99.90
32348;DHT22;18821;44.800;10.326;2023-07-16T15:03:13;37.10;99.90
32348;DHT22;18821;44.800;10.326;2023-07-16T15:08:06;36.50;99.90
32348;DHT22;18821;44.800;10.326;2023-07-16T15:10:32;36.40;99.10
32348;DHT22;18821;44.800;10.326;2023-07-16T15:12:58;36.80;99.90
32348;DHT22;18821;44.800;10.326;2023-07-16T15:17:51;37.40;99.90
32348;DHT22;18821;44.800;10.326;2023-07-16T15:20:17;36.70;99.90
32348;DHT22;18821;44.800;10.326;2023-07-16T15:25:09;37.40;99.90
32348;DHT22;18821;44.800;10.326;2023-07-16T15:30:02;37.50;99.90
32348;DHT22;18821;44.800;10.326;2023-07-16T15:32:30;36.90;99.90
32348;DHT22;18821;44.800;10.326;2023-07-16T15:34:56;36.80;99.90
32348;DHT22;18821;44.800;10.326;2023-07-16T15:39:48;36.90;99.90
32348;DHT22;18821;44.800;10.326;2023-07-16T15:42:14;35.90;99.90
32348;DHT22;18821;44.800;10.326;2023-07-16T15:44:40;36.90;99.90
32348;DHT22;18821;44.800;10.326;2023-07-16T15:52:00;36.90;99.90
32348;DHT22;18821;44.800;10.326;2023-07-16T15:54:25;37.00;99.90
32348;DHT22;18821;44.800;10.326;2023-07-16T16:01:44;37.30;99.90
32348;DHT22;18821;44.800;10.326;2023-07-16T16:06:36;36.80;99.90
32348;DHT22;18821;44.800;10.326;2023-07-16T16:09:02;36.60;99.90
32348;DHT22;18821;44.800;10.326;2023-07-16T16:11:28;37.00;99.90
32348;DHT22;18821;44.800;10.326;2023-07-16T16:16:21;36.90;99.90
32348;DHT22;18821;44.800;10.326;2023-07-16T16:18:47;36.50;99.90
32348;DHT22;18821;44.800;10.326;2023-07-16T16:21:14;36.80;99.90
32348;DHT22;18821;44.800;10.326;2023-07-16T16:23:39;36.50;99.90
32348;DHT22;18821;44.800;10.326;2023-07-16T16:30:58;35.70;99.90
32348;DHT22;18821;44.800;10.326;2023-07-16T16:33:24;36.20;99.90
32348;DHT22;18821;44.800;10.326;2023-07-16T16:35:50;36.30;99.90
32348;DHT22;18821;44.800;10.326;2023-07-16T16:43:09;36.00;99.90
32348;DHT22;18821;44.800;10.326;2023-07-16T16:50:32;35.60;99.90
32348;DHT22;18821;44.800;10.326;2023-07-16T16:55:25;35.40;99.90
32348;DHT22;18821;44.800;10.326;2023-07-16T16:57:51;35.60;99.90
32348;DHT22;18821;44.800;10.326;2023-07-16T17:02:45;35.40;99.90
32348;DHT22;18821;44.800;10.326;2023-07-16T17:07:37;35.30;99.90
32348;DHT22;18821;44.800;10.326;2023-07-16T17:10:04;34.80;99.90
32348;DHT22;18821;44.800;10.326;2023-07-16T17:14:56;35.20;99.90
32348;DHT22;18821;44.800;10.326;2023-07-16T17:17:22;35.10;99.90
32348;DHT22;18821;44.800;10.326;2023-07-16T17:19:48;35.00;99.90
32348;DHT22;18821;44.800;10.326;2023-07-16T17:24:42;35.00;99.90
32348;DHT22;18821;44.800;10.326;2023-07-16T17:27:08;34.70;99.90
32348;DHT22;18821;44.800;10.326;2023-07-16T17:29:35;35.00;99.90
32348;DHT22;18821;44.800;10.326;2023-07-16T17:32:01;34.90;99.90
32348;DHT22;18821;44.800;10.326;2023-07-16T17:34:29;35.00;99.90
32348;DHT22;18821;44.800;10.326;2023-07-16T17:39:21;34.70;99.90
32348;DHT22;18821;44.800;10.326;2023-07-16T17:41:47;34.60;99.90
32348;DHT22;18821;44.800;10.326;2023-07-16T17:44:13;34.60;99.90
32348;DHT22;18821;44.800;10.326;2023-07-16T17:46:39;34.40;99.90
32348;DHT22;18821;44.800;10.326;2023-07-16T17:49:05;34.70;99.90
32348;DHT22;18821;44.800;10.326;2023-07-16T17:53:57;34.40;99.90
32348;DHT22;18821;44.800;10.326;2023-07-16T17:58:50;34.20;99.90
32348;DHT22;18821;44.800;10.326;2023-07-16T18:01:16;34.50;99.90
32348;DHT22;18821;44.800;10.326;2023-07-16T18:03:42;34.90;99.90
32348;DHT22;18821;44.800;10.326;2023-07-16T18:11:02;35.90;99.90
32348;DHT22;18821;44.800;10.326;2023-07-16T18:15:54;36.60;99.80
32348;DHT22;18821;44.800;10.326;2023-07-16T18:20:47;36.80;99.80
32348;DHT22;18821;44.800;10.326;2023-07-16T18:23:13;36.90;99.90
32348;DHT22;18821;44.800;10.326;2023-07-16T18:25:39;36.20;99.90
32348;DHT22;18821;44.800;10.326;2023-07-16T18:28:05;36.00;99.90
32348;DHT22;18821;44.800;10.326;2023-07-16T18:35:23;35.30;99.90
32348;DHT22;18821;44.800;10.326;2023-07-16T18:37:49;34.90;99.90
32348;DHT22;18821;44.800;10.326;2023-07-16T18:45:08;34.60;99.90
32348;DHT22;18821;44.800;10.326;2023-07-16T18:54:53;32.70;99.90
32348;DHT22;18821;44.800;10.326;2023-07-16T18:59:47;32.50;99.90
32348;DHT22;18821;44.800;10.326;2023-07-16T19:02:13;32.80;99.90
32348;DHT22;18821;44.800;10.326;2023-07-16T19:04:39;32.40;99.90
32348;DHT22;18821;44.800;10.326;2023-07-16T19:09:31;31.70;99.90
32348;DHT22;18821;44.800;10.326;2023-07-16T19:11:57;31.60;99.90
32348;DHT22;18821;44.800;10.326;2023-07-16T19:29:02;31.30;99.90
32348;DHT22;18821;44.800;10.326;2023-07-16T19:31:28;31.50;99.90
32348;DHT22;18821;44.800;10.326;2023-07-16T19:33:55;31.40;99.90
32348;DHT22;18821;44.800;10.326;2023-07-16T19:36:21;31.00;99.90
32348;DHT22;18821;44.800;10.326;2023-07-16T19:38:48;31.30;99.90
32348;DHT22;18821;44.800;10.326;2023-07-16T19:43:41;31.00;99.90
32348;DHT22;18821;44.800;10.326;2023-07-16T19:46:07;31.00;99.90
32348;DHT22;18821;44.800;10.326;2023-07-16T19:48:33;30.90;99.90
32348;DHT22;18821;44.800;10.326;2023-07-16T19:51:00;31.00;99.90
32348;DHT22;18821;44.800;10.326;2023-07-16T19:53:27;31.50;99.90
32348;DHT22;18821;44.800;10.326;2023-07-16T19:55:57;30.90;99.90
32348;DHT22;18821;44.800;10.326;2023-07-16T19:58:24;30.50;99.90
32348;DHT22;18821;44.800;10.326;2023-07-16T20:03:17;31.80;99.90
32348;DHT22;18821;44.800;10.326;2023-07-16T20:05:43;31.00;99.90
32348;DHT22;18821;44.800;10.326;2023-07-16T20:08:10;30.60;99.90
32348;DHT22;18821;44.800;10.326;2023-07-16T20:10:39;30.60;99.90
32348;DHT22;18821;44.800;10.326;2023-07-16T20:13:06;30.40;99.90
32348;DHT22;18821;44.800;10.326;2023-07-16T20:15:32;30.00;99.90
32348;DHT22;18821;44.800;10.326;2023-07-16T20:17:58;30.70;99.90
32348;DHT22;18821;44.800;10.326;2023-07-16T20:20:24;30.70;99.90
32348;DHT22;18821;44.800;10.326;2023-07-16T20:22:50;30.50;99.90
32348;DHT22;18821;44.800;10.326;2023-07-16T20:25:16;30.30;99.90
32348;DHT22;18821;44.800;10.326;2023-07-16T20:27:45;30.40;99.90
32348;DHT22;18821;44.800;10.326;2023-07-16T20:40:05;30.40;99.90
32348;DHT22;18821;44.800;10.326;2023-07-16T20:42:36;30.30;99.90
32348;DHT22;18821;44.800;10.326;2023-07-16T20:45:18;30.30;99.90
32348;DHT22;18821;44.800;10.326;2023-07-16T20:47:53;30.20;99.90
32348;DHT22;18821;44.800;10.326;2023-07-16T20:50:21;30.30;99.90
32348;DHT22;18821;44.800;10.326;2023-07-16T20:52:52;30.20;99.90
32348;DHT22;18821;44.800;10.326;2023-07-16T20:55:19;29.70;99.90
32348;DHT22;18821;44.800;10.326;2023-07-16T20:57:45;30.10;99.90
32348;DHT22;18821;44.800;10.326;2023-07-16T21:00:13;30.10;99.90
32348;DHT22;18821;44.800;10.326;2023-07-16T21:02:50;30.70;99.90
32348;DHT22;18821;44.800;10.326;2023-07-16T21:05:16;29.70;99.90